Terminal Aerodrome Forecast
Issued by NWS Pocatello, ID

Home | Current Version | Previous Version | Text Only | Print | Product List | Glossary On
Versions: 1 2 3 4 5 6 7 8 9 10 11 12 13
502
FTUS45 KPIH 241725
TAFPIH
TAF
KPIH 241725Z 2418/2518 25028G40KT 6SM BLDU SCT080
      TEMPO 2419/2423 5SM BLDU
     FM250300 23015G25KT P6SM SKC
     FM250600 22011KT P6SM FEW150
     FM251400 25007KT P6SM SCT150=

USA.gov is the U.S. government's official web portal to all federal, state and local government web resources and services.